createdAt,value
2022-12-16T00:02:01.504Z,4.28
2022-12-16T00:07:02.991Z,5.95
2022-12-16T00:12:04.671Z,4.25
2022-12-16T00:17:06.190Z,3.97
2022-12-16T00:22:07.631Z,3.88
2022-12-16T00:27:09.689Z,3.58
2022-12-16T00:32:11.018Z,3.75
2022-12-16T00:37:13.307Z,4.95
2022-12-16T00:42:14.641Z,3.45
2022-12-16T00:47:15.958Z,3.80
2022-12-16T00:52:17.299Z,3.42
2022-12-16T00:57:18.712Z,2.25
2022-12-16T01:02:20.155Z,3.65
2022-12-16T01:07:21.677Z,4.13
2022-12-16T01:12:23.975Z,3.67
2022-12-16T01:17:25.997Z,3.58
2022-12-16T01:22:30.401Z,3.40
2022-12-16T01:27:31.900Z,3.53
2022-12-16T01:32:33.294Z,3.15
2022-12-16T01:37:34.692Z,2.58
2022-12-16T01:42:36.083Z,2.75
2022-12-16T01:47:37.650Z,2.50
2022-12-16T01:52:45.058Z,3.10
2022-12-16T01:57:55.128Z,2.63
2022-12-16T02:02:58.278Z,2.80
2022-12-16T02:08:10.483Z,2.40
2022-12-16T02:13:26.676Z,2.65
2022-12-16T02:18:58.304Z,3.33
2022-12-16T02:24:18.129Z,2.90
2022-12-16T02:29:33.745Z,2.50
2022-12-16T02:34:49.384Z,2.10
2022-12-16T02:39:58.612Z,2.75
2022-12-16T02:45:18.012Z,2.35
2022-12-16T02:50:34.871Z,2.22
2022-12-16T02:55:45.892Z,1.95
2022-12-16T03:01:17.350Z,1.85
2022-12-16T03:06:21.835Z,1.45
2022-12-16T03:11:27.637Z,1.75
2022-12-16T03:16:32.339Z,1.75
2022-12-16T03:21:44.889Z,1.48
2022-12-16T03:26:55.761Z,1.40
2022-12-16T03:31:58.243Z,1.40
2022-12-16T03:37:04.028Z,1.35
2022-12-16T03:42:07.058Z,1.20
2022-12-16T03:47:08.425Z,1.00
2022-12-16T03:52:09.936Z,1.10
2022-12-16T03:57:15.236Z,1.20
2022-12-16T04:02:17.060Z,1.52
2022-12-16T04:07:21.228Z,1.60
2022-12-16T04:12:40.997Z,1.63
2022-12-16T04:18:01.564Z,1.02
2022-12-16T04:23:23.026Z,1.27
2022-12-16T04:28:24.364Z,1.23
2022-12-16T04:33:44.507Z,1.40
2022-12-16T04:39:04.575Z,1.80
2022-12-16T04:44:24.487Z,1.50
2022-12-16T04:49:44.851Z,1.33
2022-12-16T04:55:04.598Z,1.23
2022-12-16T05:00:25.494Z,1.08
2022-12-16T05:05:45.135Z,0.90
2022-12-16T05:11:05.094Z,1.45
2022-12-16T05:16:25.323Z,1.00
2022-12-16T05:21:45.161Z,1.33
2022-12-16T05:27:04.902Z,1.63
2022-12-16T05:32:24.716Z,1.35
2022-12-16T05:37:45.023Z,1.67
2022-12-16T05:43:09.816Z,1.33
2022-12-16T05:48:32.167Z,1.55
2022-12-16T05:53:51.899Z,1.38
2022-12-16T05:59:11.799Z,1.70
2022-12-16T06:04:31.615Z,1.77
2022-12-16T06:09:56.300Z,1.77
2022-12-16T06:15:16.557Z,2.22
2022-12-16T06:20:36.406Z,1.58
2022-12-16T06:25:56.729Z,1.55
2022-12-16T06:31:16.590Z,1.65
2022-12-16T06:36:36.550Z,1.50
2022-12-16T06:41:56.371Z,1.73
2022-12-16T06:47:16.134Z,1.70
2022-12-16T06:52:35.937Z,1.50
2022-12-16T06:57:55.930Z,1.83
2022-12-16T07:03:16.102Z,1.23
2022-12-16T07:08:35.959Z,1.27
2022-12-16T07:13:55.951Z,1.70
2022-12-16T07:19:16.361Z,1.30
2022-12-16T07:24:36.484Z,1.58
2022-12-16T07:29:56.211Z,1.48
2022-12-16T07:35:16.138Z,1.10
2022-12-16T07:40:35.892Z,2.47
2022-12-16T07:45:56.028Z,1.95
2022-12-16T07:51:16.090Z,4.28
2022-12-16T07:56:36.462Z,5.00
2022-12-16T08:01:56.297Z,10.00
2022-12-16T08:07:16.115Z,3.33
2022-12-16T08:12:36.198Z,2.53
2022-12-16T08:17:55.992Z,2.42
2022-12-16T08:23:15.808Z,2.50
2022-12-16T08:28:35.695Z,2.65
2022-12-16T08:33:55.805Z,2.17
2022-12-16T08:39:15.672Z,2.45
2022-12-16T08:44:35.628Z,1.90
2022-12-16T08:49:57.832Z,2.50
2022-12-16T08:55:27.683Z,2.10
2022-12-16T09:00:49.454Z,2.10
2022-12-16T09:06:09.347Z,2.20
2022-12-16T09:11:29.098Z,2.08
2022-12-16T09:16:49.232Z,1.63
2022-12-16T09:22:09.114Z,1.80
2022-12-16T09:27:29.335Z,2.47
2022-12-16T09:32:49.387Z,2.03
2022-12-16T09:38:09.716Z,1.92
2022-12-16T09:43:54.643Z,2.25
2022-12-16T09:49:24.605Z,2.08
2022-12-16T09:54:47.883Z,1.48
2022-12-16T10:00:20.604Z,2.00
2022-12-16T10:05:52.314Z,1.52
2022-12-16T10:11:25.511Z,1.80
2022-12-16T10:17:10.649Z,1.88
2022-12-16T10:22:45.712Z,1.95
2022-12-16T10:28:07.583Z,1.60
2022-12-16T10:33:33.061Z,2.00
2022-12-16T10:38:58.211Z,2.58
2022-12-16T10:44:19.189Z,2.22
2022-12-16T10:49:39.373Z,2.17
2022-12-16T10:55:05.643Z,1.63
2022-12-16T11:00:38.428Z,2.55
2022-12-16T11:05:58.504Z,2.85
2022-12-16T11:11:31.796Z,2.47
2022-12-16T11:16:51.722Z,2.53
2022-12-16T11:22:25.175Z,3.03
2022-12-16T11:27:45.513Z,2.95
2022-12-16T11:33:09.883Z,3.30
2022-12-16T11:38:58.904Z,2.47
2022-12-16T11:44:21.197Z,2.90
2022-12-16T11:49:48.584Z,2.78
2022-12-16T11:56:04.031Z,3.40
2022-12-16T12:01:45.034Z,2.88
2022-12-16T12:07:50.835Z,3.00
2022-12-16T12:13:20.440Z,2.88
2022-12-16T12:18:56.535Z,3.40
2022-12-16T12:24:33.358Z,2.40
2022-12-16T12:30:16.557Z,2.70
2022-12-16T12:36:05.184Z,3.22
2022-12-16T12:41:37.098Z,2.33
2022-12-16T12:47:07.637Z,3.25
2022-12-16T12:52:45.486Z,2.88
2022-12-16T12:58:09.273Z,3.50
2022-12-16T13:03:55.805Z,3.47
2022-12-16T13:09:18.165Z,3.55
2022-12-16T13:15:10.512Z,3.47
2022-12-16T13:20:52.346Z,3.88
2022-12-16T13:26:23.261Z,3.20
2022-12-16T13:31:45.198Z,3.63
2022-12-16T13:37:12.417Z,3.08
2022-12-16T13:42:53.405Z,3.42
2022-12-16T13:48:13.237Z,3.22
2022-12-16T13:53:35.479Z,3.40
2022-12-16T13:59:17.832Z,4.10
2022-12-16T14:04:45.212Z,3.83
2022-12-16T14:10:07.683Z,5.95
2022-12-16T14:15:44.609Z,4.78
2022-12-16T14:21:17.935Z,4.18
2022-12-16T14:26:38.682Z,3.90
2022-12-16T14:32:01.465Z,4.55
2022-12-16T14:37:42.878Z,5.60
2022-12-16T14:43:05.307Z,4.47
2022-12-16T14:48:49.823Z,4.70
2022-12-16T14:54:10.133Z,5.60
2022-12-16T14:59:32.046Z,5.15
2022-12-16T15:04:52.002Z,7.13
2022-12-16T15:10:14.287Z,5.13
2022-12-16T15:15:41.581Z,5.13
2022-12-16T15:21:13.318Z,5.63
2022-12-16T15:26:38.332Z,5.90
2022-12-16T15:32:03.349Z,5.63
2022-12-16T15:37:34.610Z,5.13
2022-12-16T15:42:54.865Z,5.55
2022-12-16T15:48:15.279Z,4.40
2022-12-16T15:53:47.514Z,5.60
2022-12-16T15:59:07.685Z,8.57
2022-12-16T16:04:39.278Z,7.70
2022-12-16T16:09:59.021Z,6.47
2022-12-16T16:15:19.583Z,5.88
2022-12-16T16:20:39.388Z,5.50
2022-12-16T16:26:03.651Z,5.55
2022-12-16T16:31:24.336Z,6.55
2022-12-16T16:36:44.585Z,8.50
2022-12-16T16:42:04.570Z,8.75
2022-12-16T16:47:33.547Z,8.02
2022-12-16T16:52:53.266Z,6.72
2022-12-16T16:58:12.992Z,6.00
2022-12-16T17:03:34.039Z,4.68
2022-12-16T17:08:54.825Z,4.40
2022-12-16T17:14:14.790Z,5.45
2022-12-16T17:19:34.638Z,4.97
2022-12-16T17:24:54.835Z,5.30
2022-12-16T17:30:14.971Z,5.22
2022-12-16T17:35:34.737Z,5.35
2022-12-16T17:40:54.607Z,5.95
2022-12-16T17:46:25.791Z,8.27
2022-12-16T17:51:45.913Z,6.57
2022-12-16T17:57:06.046Z,9.50
2022-12-16T18:02:31.646Z,7.38
2022-12-16T18:07:51.828Z,6.43
2022-12-16T18:13:14.158Z,7.20
2022-12-16T18:18:34.330Z,7.03
2022-12-16T18:23:54.426Z,6.53
2022-12-16T18:29:14.594Z,6.78
2022-12-16T18:34:34.866Z,7.70
2022-12-16T18:39:54.675Z,6.75
2022-12-16T18:45:14.767Z,6.85
2022-12-16T18:50:37.971Z,8.05
2022-12-16T18:55:58.243Z,7.68
2022-12-16T19:01:21.116Z,8.85
2022-12-16T19:06:41.189Z,8.80
2022-12-16T19:12:01.240Z,12.07
2022-12-16T19:17:21.706Z,13.02
2022-12-16T19:22:41.460Z,10.02
2022-12-16T19:28:01.290Z,13.50
2022-12-16T19:33:21.349Z,12.10
2022-12-16T19:38:41.194Z,9.40
2022-12-16T19:49:44.405Z,8.77
2022-12-16T19:55:04.801Z,9.10
2022-12-16T20:00:25.419Z,9.02
2022-12-16T20:05:45.577Z,8.07
2022-12-16T20:11:05.420Z,7.43
2022-12-16T20:16:27.951Z,7.78
2022-12-16T20:21:49.079Z,9.40
2022-12-16T20:27:09.581Z,8.30
2022-12-16T20:32:29.334Z,8.02
2022-12-16T20:37:49.239Z,9.40
2022-12-16T20:43:09.066Z,10.00
2022-12-16T20:48:33.455Z,10.60
2022-12-16T20:53:53.743Z,10.18
2022-12-16T20:59:16.701Z,9.90
2022-12-16T21:04:36.519Z,13.32
2022-12-16T21:09:56.241Z,13.60
2022-12-16T21:14:28.351Z,7.72
2022-12-16T21:15:16.244Z,14.20
2022-12-16T21:20:36.473Z,15.38
2022-12-16T21:25:56.256Z,13.90
2022-12-16T21:31:17.930Z,11.35
2022-12-16T21:36:38.072Z,10.43
2022-12-16T21:41:58.127Z,9.20
2022-12-16T21:47:17.980Z,8.20
2022-12-16T21:52:37.756Z,8.32
2022-12-16T21:57:57.620Z,8.65
2022-12-16T22:03:17.349Z,8.45
2022-12-16T22:08:37.262Z,8.52
2022-12-16T22:13:57.095Z,9.07
2022-12-16T22:19:16.995Z,11.20
2022-12-16T22:24:36.974Z,12.43
2022-12-16T22:29:56.904Z,17.95
2022-12-16T22:35:16.854Z,19.42
2022-12-16T22:40:37.095Z,12.57
2022-12-16T22:45:56.859Z,10.32
2022-12-16T22:51:16.689Z,10.23
2022-12-16T22:56:36.570Z,9.55
2022-12-16T23:02:10.144Z,18.83
2022-12-16T23:07:30.412Z,16.83
2022-12-16T23:12:50.690Z,16.05
2022-12-16T23:18:11.773Z,19.95
2022-12-16T23:23:31.538Z,26.92
2022-12-16T23:28:51.386Z,22.23
2022-12-16T23:34:12.153Z,26.50
2022-12-16T23:41:17.878Z,23.50
2022-12-16T23:46:37.794Z,20.57
2022-12-16T23:51:57.873Z,16.63
2022-12-16T23:57:17.692Z,12.23
